Airport View

Enter AWOS ICAO identifier for current METAR.

ex. KFNL

KPVU 191856Z 24006KT 10SM SCT085 SCT200 27/06 A3001 RMK AO2 SLP109 T02670061

19 Jun 2019 19:45

Frequency: 135.175

Phone: 801-373-9782

Other Area AWOS: KHCR - K36U - KU42 - KSLC

TAF KPVU 191720Z 1918/2018 24008KT P6SM SCT220 FM192300 29011G17KT P6SM FEW090 SCT200 FM200200 32009KT P6SM SCT200 FM200700 VRB05KT P6SM SCT200